Aeroporto :
LOGIN :

Iscrizione | Disclaimer

   EN    FR    IT 

 










Sommario :    VFR   VFR Marginale   IFR   IFR Intensivo   IFR Molto Intensivo
Visibilità : 
Base nubi : 
>= 8 km
>= 3000ft
5 / 8 km
1000 / 3000 ft
1500m / 5 km
500 / 1000 ft
800 / 1500m
200 / 500 ft
< 800m
< 200 ft
Simboli :   Temporali  Nebbia  Neve Forte  Precipitazioni Forti  Vento > 20 kt
SIGMETs :   Varie  Temporali  Ghiacco  Turbolenza  Onda orograficha  Ceneri Vulcaniche







- Altitudine del aeroporto : 1487 ft
- Codice IATA : MUC


EDDM - München Franz Josef Strauss

ULTIMO METAR :
  • 152020Z 02003KT CAVOK 17/12 Q1016 NOSIG

METARs OBSOLETI :
  • 151950Z 31003KT CAVOK 19/11 Q1016 NOSIG
  • 151920Z AUTO 31003KT //// R26R/P2000N R26L/P2000N // ///////// 20/12 Q1016 NOSIG
  • 151850Z 30003KT 9999 FEW035 20/12 Q1015 NOSIG
  • 151820Z 32002KT 9999 FEW035 21/12 Q1015 NOSIG
  • 151750Z 30003KT 9999 FEW035 22/11 Q1015 NOSIG

TAF TAF EDDM
Valido dal 15 a 18 ore il 17 a 00 ore UTC


151700Z 1518/1624 36004KT 9999 FEW045
BECMG 1606/1608 29007KT
BECMG 1617/1619 VRB03KT
Nessun NOTAM noto per questo aeroporto.



MetMap, La meteo Aeronautica in un colpo d'occhio ! - Copyright ORBIFLY Dicembre 2007 - Disclaimer

ORBIFLY MET'MAP TEAM :

Programmazione e sviluppo : Alexandra Zaïnal
Concezione e sviluppo : Baudouin d'Aumeries
Co-Programmazione e sviluppo : Marc-Olivier Méhu
Supporto tecnico e logistico : Manuel Goepfert
Aiuto per la traduzione : Arnaldo La Scala

Contatto : metmap@orbifly.com




FONTI E CREDITI :

   NOAA